sensor_id;sensor_type;location;lat;lon;timestamp;P1;durP1;ratioP1;P2;durP2;ratioP2
4053;SDS011;2042;47.956;9.222;2023-04-06T00:08:39;977.17;;;899.13;;
4053;SDS011;2042;47.956;9.222;2023-04-06T00:11:06;1137.70;;;999.90;;
4053;SDS011;2042;47.956;9.222;2023-04-06T00:13:32;1249.97;;;999.90;;
4053;SDS011;2042;47.956;9.222;2023-04-06T00:15:57;1380.63;;;999.90;;
4053;SDS011;2042;47.956;9.222;2023-04-06T00:18:23;1135.23;;;987.60;;
4053;SDS011;2042;47.956;9.222;2023-04-06T00:20:49;543.03;;;502.13;;
4053;SDS011;2042;47.956;9.222;2023-04-06T00:23:16;1182.57;;;999.90;;
4053;SDS011;2042;47.956;9.222;2023-04-06T00:25:41;1242.97;;;999.90;;
4053;SDS011;2042;47.956;9.222;2023-04-06T00:28:08;1188.90;;;999.90;;
4053;SDS011;2042;47.956;9.222;2023-04-06T00:30:34;1059.27;;;966.23;;
4053;SDS011;2042;47.956;9.222;2023-04-06T00:33:00;1039.83;;;945.50;;
4053;SDS011;2042;47.956;9.222;2023-04-06T00:35:26;1217.17;;;999.90;;
4053;SDS011;2042;47.956;9.222;2023-04-06T00:37:52;986.60;;;912.17;;
4053;SDS011;2042;47.956;9.222;2023-04-06T00:40:18;1047.43;;;948.93;;
4053;SDS011;2042;47.956;9.222;2023-04-06T00:42:44;1119.20;;;999.90;;
4053;SDS011;2042;47.956;9.222;2023-04-06T00:45:11;1011.07;;;924.57;;
4053;SDS011;2042;47.956;9.222;2023-04-06T00:47:37;972.50;;;881.33;;
4053;SDS011;2042;47.956;9.222;2023-04-06T00:50:04;1207.83;;;999.90;;
4053;SDS011;2042;47.956;9.222;2023-04-06T00:52:33;864.67;;;790.83;;
4053;SDS011;2042;47.956;9.222;2023-04-06T00:55:01;1142.70;;;999.90;;
4053;SDS011;2042;47.956;9.222;2023-04-06T00:57:27;931.53;;;858.23;;
4053;SDS011;2042;47.956;9.222;2023-04-06T00:59:53;1038.27;;;950.37;;
4053;SDS011;2042;47.956;9.222;2023-04-06T01:02:19;1051.30;;;960.23;;
4053;SDS011;2042;47.956;9.222;2023-04-06T01:04:44;1098.83;;;998.07;;
4053;SDS011;2042;47.956;9.222;2023-04-06T01:07:10;1000.10;;;917.33;;
4053;SDS011;2042;47.956;9.222;2023-04-06T01:09:37;1052.30;;;961.00;;
4053;SDS011;2042;47.956;9.222;2023-04-06T01:12:06;746.40;;;655.37;;
4053;SDS011;2042;47.956;9.222;2023-04-06T01:14:33;986.53;;;896.57;;
4053;SDS011;2042;47.956;9.222;2023-04-06T01:16:59;1274.23;;;999.90;;
4053;SDS011;2042;47.956;9.222;2023-04-06T01:19:25;1597.07;;;999.90;;
4053;SDS011;2042;47.956;9.222;2023-04-06T01:21:53;698.90;;;630.00;;
4053;SDS011;2042;47.956;9.222;2023-04-06T01:24:19;642.57;;;588.93;;
4053;SDS011;2042;47.956;9.222;2023-04-06T01:26:45;655.67;;;610.43;;
4053;SDS011;2042;47.956;9.222;2023-04-06T01:29:11;565.87;;;523.37;;
4053;SDS011;2042;47.956;9.222;2023-04-06T01:31:38;653.83;;;612.10;;
4053;SDS011;2042;47.956;9.222;2023-04-06T01:34:05;397.37;;;370.23;;
4053;SDS011;2042;47.956;9.222;2023-04-06T01:36:31;287.00;;;264.37;;
4053;SDS011;2042;47.956;9.222;2023-04-06T01:38:57;1117.80;;;999.90;;
4053;SDS011;2042;47.956;9.222;2023-04-06T01:41:23;1222.37;;;999.90;;
4053;SDS011;2042;47.956;9.222;2023-04-06T01:43:49;1199.20;;;999.90;;
4053;SDS011;2042;47.956;9.222;2023-04-06T01:46:19;1014.20;;;933.10;;
4053;SDS011;2042;47.956;9.222;2023-04-06T01:48:54;820.23;;;761.70;;
4053;SDS011;2042;47.956;9.222;2023-04-06T01:51:20;783.20;;;729.83;;
4053;SDS011;2042;47.956;9.222;2023-04-06T01:53:46;959.10;;;887.77;;
4053;SDS011;2042;47.956;9.222;2023-04-06T01:56:14;854.13;;;796.80;;
4053;SDS011;2042;47.956;9.222;2023-04-06T01:58:40;894.03;;;835.90;;
4053;SDS011;2042;47.956;9.222;2023-04-06T02:01:05;809.07;;;756.13;;
4053;SDS011;2042;47.956;9.222;2023-04-06T02:03:31;636.20;;;591.40;;
4053;SDS011;2042;47.956;9.222;2023-04-06T02:05:57;632.90;;;595.40;;
4053;SDS011;2042;47.956;9.222;2023-04-06T02:08:23;825.40;;;769.77;;
4053;SDS011;2042;47.956;9.222;2023-04-06T02:10:49;859.03;;;795.17;;
4053;SDS011;2042;47.956;9.222;2023-04-06T02:13:15;550.83;;;504.17;;
4053;SDS011;2042;47.956;9.222;2023-04-06T02:15:40;212.97;;;195.10;;
4053;SDS011;2042;47.956;9.222;2023-04-06T02:18:07;206.43;;;186.87;;
4053;SDS011;2042;47.956;9.222;2023-04-06T02:20:35;370.20;;;340.73;;
4053;SDS011;2042;47.956;9.222;2023-04-06T02:23:00;487.40;;;449.10;;
4053;SDS011;2042;47.956;9.222;2023-04-06T02:25:26;559.33;;;512.83;;
4053;SDS011;2042;47.956;9.222;2023-04-06T02:27:55;264.40;;;244.17;;
4053;SDS011;2042;47.956;9.222;2023-04-06T02:30:25;545.07;;;510.73;;
4053;SDS011;2042;47.956;9.222;2023-04-06T02:32:51;541.67;;;508.13;;
4053;SDS011;2042;47.956;9.222;2023-04-06T02:35:19;598.93;;;561.90;;
4053;SDS011;2042;47.956;9.222;2023-04-06T02:37:45;462.40;;;432.70;;
4053;SDS011;2042;47.956;9.222;2023-04-06T02:40:10;542.33;;;509.93;;
4053;SDS011;2042;47.956;9.222;2023-04-06T02:42:36;502.90;;;472.23;;
4053;SDS011;2042;47.956;9.222;2023-04-06T02:45:04;447.47;;;419.47;;
4053;SDS011;2042;47.956;9.222;2023-04-06T02:47:30;487.57;;;458.33;;
4053;SDS011;2042;47.956;9.222;2023-04-06T02:49:57;554.17;;;522.53;;
4053;SDS011;2042;47.956;9.222;2023-04-06T02:52:23;506.47;;;475.93;;
4053;SDS011;2042;47.956;9.222;2023-04-06T02:54:49;488.87;;;459.20;;
4053;SDS011;2042;47.956;9.222;2023-04-06T02:57:16;412.83;;;385.77;;
4053;SDS011;2042;47.956;9.222;2023-04-06T02:59:42;428.20;;;400.10;;
4053;SDS011;2042;47.956;9.222;2023-04-06T03:02:07;471.70;;;441.37;;
4053;SDS011;2042;47.956;9.222;2023-04-06T03:04:33;602.30;;;564.90;;
4053;SDS011;2042;47.956;9.222;2023-04-06T03:07:01;463.77;;;433.73;;
4053;SDS011;2042;47.956;9.222;2023-04-06T03:09:27;388.67;;;363.87;;
4053;SDS011;2042;47.956;9.222;2023-04-06T03:11:53;334.90;;;313.37;;
4053;SDS011;2042;47.956;9.222;2023-04-06T03:14:20;230.43;;;213.13;;
4053;SDS011;2042;47.956;9.222;2023-04-06T03:16:47;281.90;;;261.90;;
4053;SDS011;2042;47.956;9.222;2023-04-06T03:19:13;243.60;;;224.37;;
4053;SDS011;2042;47.956;9.222;2023-04-06T03:21:40;338.27;;;314.37;;
4053;SDS011;2042;47.956;9.222;2023-04-06T03:24:06;182.17;;;166.40;;
4053;SDS011;2042;47.956;9.222;2023-04-06T03:26:33;561.47;;;530.03;;
4053;SDS011;2042;47.956;9.222;2023-04-06T03:28:59;190.30;;;174.27;;
4053;SDS011;2042;47.956;9.222;2023-04-06T03:31:25;471.07;;;440.90;;
4053;SDS011;2042;47.956;9.222;2023-04-06T03:33:52;458.30;;;430.50;;
4053;SDS011;2042;47.956;9.222;2023-04-06T03:36:19;475.23;;;448.73;;
4053;SDS011;2042;47.956;9.222;2023-04-06T03:38:45;483.33;;;453.03;;
4053;SDS011;2042;47.956;9.222;2023-04-06T03:41:10;414.23;;;387.70;;
4053;SDS011;2042;47.956;9.222;2023-04-06T03:43:36;540.93;;;510.93;;
4053;SDS011;2042;47.956;9.222;2023-04-06T03:46:03;330.00;;;308.03;;
4053;SDS011;2042;47.956;9.222;2023-04-06T03:48:29;279.50;;;257.90;;
4053;SDS011;2042;47.956;9.222;2023-04-06T03:50:55;372.53;;;347.87;;
4053;SDS011;2042;47.956;9.222;2023-04-06T03:53:21;332.37;;;307.40;;
4053;SDS011;2042;47.956;9.222;2023-04-06T03:55:46;420.57;;;393.00;;
4053;SDS011;2042;47.956;9.222;2023-04-06T03:58:13;468.77;;;439.63;;
4053;SDS011;2042;47.956;9.222;2023-04-06T04:00:39;442.33;;;413.83;;
4053;SDS011;2042;47.956;9.222;2023-04-06T04:03:05;426.87;;;398.47;;
4053;SDS011;2042;47.956;9.222;2023-04-06T04:05:31;386.87;;;360.57;;
4053;SDS011;2042;47.956;9.222;2023-04-06T04:08:03;441.33;;;414.77;;
4053;SDS011;2042;47.956;9.222;2023-04-06T04:10:29;678.37;;;637.23;;
4053;SDS011;2042;47.956;9.222;2023-04-06T04:12:55;813.43;;;762.53;;
4053;SDS011;2042;47.956;9.222;2023-04-06T04:15:21;651.93;;;614.77;;
4053;SDS011;2042;47.956;9.222;2023-04-06T04:17:46;543.90;;;513.00;;
4053;SDS011;2042;47.956;9.222;2023-04-06T04:20:14;459.17;;;433.13;;
4053;SDS011;2042;47.956;9.222;2023-04-06T04:22:41;292.87;;;274.27;;
4053;SDS011;2042;47.956;9.222;2023-04-06T04:25:09;302.10;;;283.03;;
4053;SDS011;2042;47.956;9.222;2023-04-06T04:27:35;348.07;;;326.23;;
4053;SDS011;2042;47.956;9.222;2023-04-06T04:30:04;486.40;;;456.80;;
4053;SDS011;2042;47.956;9.222;2023-04-06T04:32:31;613.27;;;578.33;;
4053;SDS011;2042;47.956;9.222;2023-04-06T04:34:56;687.23;;;647.97;;
4053;SDS011;2042;47.956;9.222;2023-04-06T04:37:22;661.33;;;623.93;;
4053;SDS011;2042;47.956;9.222;2023-04-06T04:39:48;811.10;;;760.20;;
4053;SDS011;2042;47.956;9.222;2023-04-06T04:42:14;817.73;;;765.50;;
4053;SDS011;2042;47.956;9.222;2023-04-06T04:44:41;819.27;;;769.40;;
4053;SDS011;2042;47.956;9.222;2023-04-06T04:47:07;811.17;;;759.63;;
4053;SDS011;2042;47.956;9.222;2023-04-06T04:49:36;832.77;;;779.33;;
4053;SDS011;2042;47.956;9.222;2023-04-06T04:52:02;841.87;;;788.90;;
4053;SDS011;2042;47.956;9.222;2023-04-06T04:54:27;856.43;;;797.60;;
4053;SDS011;2042;47.956;9.222;2023-04-06T04:56:54;885.03;;;824.33;;
4053;SDS011;2042;47.956;9.222;2023-04-06T04:59:20;860.83;;;802.53;;
4053;SDS011;2042;47.956;9.222;2023-04-06T05:01:45;823.50;;;768.53;;
4053;SDS011;2042;47.956;9.222;2023-04-06T05:04:12;830.93;;;778.00;;
4053;SDS011;2042;47.956;9.222;2023-04-06T05:06:39;897.93;;;836.10;;
4053;SDS011;2042;47.956;9.222;2023-04-06T05:09:06;937.47;;;874.53;;
4053;SDS011;2042;47.956;9.222;2023-04-06T05:11:32;921.43;;;854.97;;
4053;SDS011;2042;47.956;9.222;2023-04-06T05:13:58;844.47;;;785.40;;
4053;SDS011;2042;47.956;9.222;2023-04-06T05:16:24;774.03;;;716.53;;
4053;SDS011;2042;47.956;9.222;2023-04-06T05:18:50;827.87;;;767.27;;
4053;SDS011;2042;47.956;9.222;2023-04-06T05:21:16;778.37;;;720.50;;
4053;SDS011;2042;47.956;9.222;2023-04-06T05:23:41;1246.37;;;863.40;;
4053;SDS011;2042;47.956;9.222;2023-04-06T05:26:08;1999.90;;;999.90;;
4053;SDS011;2042;47.956;9.222;2023-04-06T05:28:36;1999.90;;;999.90;;
4053;SDS011;2042;47.956;9.222;2023-04-06T05:31:01;1999.90;;;999.90;;
4053;SDS011;2042;47.956;9.222;2023-04-06T05:33:27;1999.90;;;999.90;;
4053;SDS011;2042;47.956;9.222;2023-04-06T05:35:55;1999.90;;;999.90;;
4053;SDS011;2042;47.956;9.222;2023-04-06T05:38:21;1999.90;;;999.90;;
4053;SDS011;2042;47.956;9.222;2023-04-06T05:40:49;1999.90;;;999.90;;
4053;SDS011;2042;47.956;9.222;2023-04-06T05:43:15;1999.90;;;999.90;;
4053;SDS011;2042;47.956;9.222;2023-04-06T05:45:43;1999.90;;;999.90;;
4053;SDS011;2042;47.956;9.222;2023-04-06T05:48:11;1999.90;;;999.90;;
4053;SDS011;2042;47.956;9.222;2023-04-06T05:50:36;1999.90;;;999.90;;
4053;SDS011;2042;47.956;9.222;2023-04-06T06:23:54;1999.90;;;999.90;;
4053;SDS011;2042;47.956;9.222;2023-04-06T06:26:21;1999.90;;;999.90;;
4053;SDS011;2042;47.956;9.222;2023-04-06T06:28:47;1999.90;;;999.90;;
4053;SDS011;2042;47.956;9.222;2023-04-06T06:31:13;1999.90;;;999.90;;
4053;SDS011;2042;47.956;9.222;2023-04-06T06:33:39;1999.90;;;999.90;;
4053;SDS011;2042;47.956;9.222;2023-04-06T06:36:07;1999.90;;;999.90;;
4053;SDS011;2042;47.956;9.222;2023-04-06T06:59:07;1999.90;;;999.90;;
4053;SDS011;2042;47.956;9.222;2023-04-06T07:01:34;1999.90;;;999.90;;
4053;SDS011;2042;47.956;9.222;2023-04-06T07:04:02;1999.90;;;999.90;;
4053;SDS011;2042;47.956;9.222;2023-04-06T07:06:27;1999.90;;;999.90;;
4053;SDS011;2042;47.956;9.222;2023-04-06T07:08:53;1999.90;;;999.90;;
4053;SDS011;2042;47.956;9.222;2023-04-06T07:11:20;1999.90;;;999.90;;
4053;SDS011;2042;47.956;9.222;2023-04-06T07:23:21;1999.90;;;999.90;;
4053;SDS011;2042;47.956;9.222;2023-04-06T07:25:47;1999.90;;;999.90;;
4053;SDS011;2042;47.956;9.222;2023-04-06T07:28:16;1999.90;;;999.90;;
4053;SDS011;2042;47.956;9.222;2023-04-06T07:30:42;1999.90;;;999.90;;
4053;SDS011;2042;47.956;9.222;2023-04-06T07:33:07;1999.90;;;999.90;;
4053;SDS011;2042;47.956;9.222;2023-04-06T07:35:34;1999.90;;;999.90;;
4053;SDS011;2042;47.956;9.222;2023-04-06T09:24:07;1999.90;;;999.90;;
4053;SDS011;2042;47.956;9.222;2023-04-06T09:26:43;1999.90;;;999.90;;
4053;SDS011;2042;47.956;9.222;2023-04-06T09:29:21;1999.90;;;999.90;;
4053;SDS011;2042;47.956;9.222;2023-04-06T09:32:01;1999.90;;;999.90;;
4053;SDS011;2042;47.956;9.222;2023-04-06T09:34:29;1999.90;;;999.90;;
4053;SDS011;2042;47.956;9.222;2023-04-06T11:12:08;1999.90;;;999.90;;
4053;SDS011;2042;47.956;9.222;2023-04-06T11:14:55;1999.90;;;999.90;;
4053;SDS011;2042;47.956;9.222;2023-04-06T11:17:29;1999.90;;;999.90;;
4053;SDS011;2042;47.956;9.222;2023-04-06T11:19:57;1999.90;;;999.90;;
4053;SDS011;2042;47.956;9.222;2023-04-06T11:22:23;1999.90;;;999.90;;
4053;SDS011;2042;47.956;9.222;2023-04-06T11:24:50;1999.90;;;999.90;;
4053;SDS011;2042;47.956;9.222;2023-04-06T11:27:16;1999.90;;;999.90;;
4053;SDS011;2042;47.956;9.222;2023-04-06T11:29:43;1999.90;;;999.90;;
4053;SDS011;2042;47.956;9.222;2023-04-06T11:32:19;1999.90;;;999.90;;
4053;SDS011;2042;47.956;9.222;2023-04-06T11:34:47;1999.90;;;999.90;;
4053;SDS011;2042;47.956;9.222;2023-04-06T11:37:14;1999.90;;;999.90;;
4053;SDS011;2042;47.956;9.222;2023-04-06T11:39:48;1999.90;;;999.90;;
4053;SDS011;2042;47.956;9.222;2023-04-06T11:42:26;1999.90;;;999.90;;
4053;SDS011;2042;47.956;9.222;2023-04-06T11:44:55;1999.90;;;999.90;;
4053;SDS011;2042;47.956;9.222;2023-04-06T11:47:32;1999.90;;;999.90;;
4053;SDS011;2042;47.956;9.222;2023-04-06T11:50:09;1999.90;;;999.90;;
4053;SDS011;2042;47.956;9.222;2023-04-06T11:52:40;1999.90;;;999.90;;
4053;SDS011;2042;47.956;9.222;2023-04-06T11:55:17;1999.90;;;999.90;;
4053;SDS011;2042;47.956;9.222;2023-04-06T11:57:44;1999.90;;;999.90;;
4053;SDS011;2042;47.956;9.222;2023-04-06T12:00:12;1999.90;;;999.90;;
4053;SDS011;2042;47.956;9.222;2023-04-06T12:02:39;1999.90;;;999.90;;
4053;SDS011;2042;47.956;9.222;2023-04-06T12:05:10;1999.90;;;999.90;;
4053;SDS011;2042;47.956;9.222;2023-04-06T12:07:36;1999.90;;;999.90;;
4053;SDS011;2042;47.956;9.222;2023-04-06T12:10:02;1999.90;;;999.90;;
4053;SDS011;2042;47.956;9.222;2023-04-06T12:12:28;1999.90;;;999.90;;
4053;SDS011;2042;47.956;9.222;2023-04-06T12:14:55;1999.90;;;999.90;;
4053;SDS011;2042;47.956;9.222;2023-04-06T12:17:29;1999.90;;;999.90;;
4053;SDS011;2042;47.956;9.222;2023-04-06T12:19:56;1999.90;;;999.90;;
4053;SDS011;2042;47.956;9.222;2023-04-06T12:22:21;1999.90;;;999.90;;
4053;SDS011;2042;47.956;9.222;2023-04-06T12:24:47;1999.90;;;999.90;;
4053;SDS011;2042;47.956;9.222;2023-04-06T12:27:13;1999.90;;;999.90;;
4053;SDS011;2042;47.956;9.222;2023-04-06T12:29:40;1999.90;;;999.90;;
4053;SDS011;2042;47.956;9.222;2023-04-06T12:32:07;1999.90;;;999.90;;
4053;SDS011;2042;47.956;9.222;2023-04-06T12:34:33;1999.90;;;999.90;;
4053;SDS011;2042;47.956;9.222;2023-04-06T12:36:59;1999.90;;;999.90;;
4053;SDS011;2042;47.956;9.222;2023-04-06T12:39:27;1999.90;;;999.90;;
4053;SDS011;2042;47.956;9.222;2023-04-06T12:41:54;1999.90;;;999.90;;
4053;SDS011;2042;47.956;9.222;2023-04-06T12:44:21;1999.90;;;999.90;;
4053;SDS011;2042;47.956;9.222;2023-04-06T12:46:47;1999.90;;;999.90;;
4053;SDS011;2042;47.956;9.222;2023-04-06T12:49:12;1999.90;;;999.90;;
4053;SDS011;2042;47.956;9.222;2023-04-06T12:51:39;1999.90;;;999.90;;
4053;SDS011;2042;47.956;9.222;2023-04-06T12:54:05;1999.90;;;999.90;;
4053;SDS011;2042;47.956;9.222;2023-04-06T12:56:31;1999.90;;;999.90;;
4053;SDS011;2042;47.956;9.222;2023-04-06T12:58:57;1999.90;;;999.90;;
4053;SDS011;2042;47.956;9.222;2023-04-06T13:01:24;1999.90;;;999.90;;
4053;SDS011;2042;47.956;9.222;2023-04-06T13:03:51;1999.90;;;999.90;;
4053;SDS011;2042;47.956;9.222;2023-04-06T13:06:17;1999.90;;;999.90;;
4053;SDS011;2042;47.956;9.222;2023-04-06T13:08:42;1999.90;;;999.90;;
4053;SDS011;2042;47.956;9.222;2023-04-06T13:21:26;1999.90;;;999.90;;
4053;SDS011;2042;47.956;9.222;2023-04-06T13:23:54;1999.90;;;999.90;;
4053;SDS011;2042;47.956;9.222;2023-04-06T13:26:21;1999.90;;;999.90;;
4053;SDS011;2042;47.956;9.222;2023-04-06T13:28:47;1999.90;;;999.90;;
4053;SDS011;2042;47.956;9.222;2023-04-06T13:31:12;1999.90;;;999.90;;
4053;SDS011;2042;47.956;9.222;2023-04-06T13:33:39;1999.90;;;999.90;;
4053;SDS011;2042;47.956;9.222;2023-04-06T13:36:06;1999.90;;;999.90;;
4053;SDS011;2042;47.956;9.222;2023-04-06T13:38:32;1999.90;;;999.90;;
4053;SDS011;2042;47.956;9.222;2023-04-06T13:40:59;1999.90;;;999.90;;
4053;SDS011;2042;47.956;9.222;2023-04-06T13:43:25;1999.90;;;999.90;;
4053;SDS011;2042;47.956;9.222;2023-04-06T13:45:54;1999.90;;;999.90;;
4053;SDS011;2042;47.956;9.222;2023-04-06T13:48:25;1999.90;;;999.90;;
4053;SDS011;2042;47.956;9.222;2023-04-06T13:50:52;1999.90;;;999.90;;
4053;SDS011;2042;47.956;9.222;2023-04-06T13:53:18;1999.90;;;999.90;;
4053;SDS011;2042;47.956;9.222;2023-04-06T13:55:43;1999.90;;;999.90;;
4053;SDS011;2042;47.956;9.222;2023-04-06T13:58:16;1999.90;;;999.90;;
4053;SDS011;2042;47.956;9.222;2023-04-06T14:00:43;1999.90;;;999.90;;
4053;SDS011;2042;47.956;9.222;2023-04-06T14:03:13;1999.90;;;999.90;;
4053;SDS011;2042;47.956;9.222;2023-04-06T14:05:42;1999.90;;;999.90;;
4053;SDS011;2042;47.956;9.222;2023-04-06T14:08:11;1999.90;;;999.90;;
4053;SDS011;2042;47.956;9.222;2023-04-06T14:10:38;1999.90;;;999.90;;
4053;SDS011;2042;47.956;9.222;2023-04-06T14:13:07;1999.90;;;999.90;;
4053;SDS011;2042;47.956;9.222;2023-04-06T14:15:33;1999.90;;;999.90;;
4053;SDS011;2042;47.956;9.222;2023-04-06T14:18:00;1999.90;;;999.90;;
4053;SDS011;2042;47.956;9.222;2023-04-06T14:20:27;1999.90;;;999.90;;
4053;SDS011;2042;47.956;9.222;2023-04-06T14:22:52;1999.90;;;999.90;;
4053;SDS011;2042;47.956;9.222;2023-04-06T14:25:19;1999.90;;;999.90;;
4053;SDS011;2042;47.956;9.222;2023-04-06T14:27:45;1999.90;;;999.90;;
4053;SDS011;2042;47.956;9.222;2023-04-06T14:30:11;1999.90;;;999.90;;
4053;SDS011;2042;47.956;9.222;2023-04-06T14:32:38;1999.90;;;999.90;;
4053;SDS011;2042;47.956;9.222;2023-04-06T14:35:07;1999.90;;;999.90;;
4053;SDS011;2042;47.956;9.222;2023-04-06T14:37:33;1999.90;;;999.90;;
4053;SDS011;2042;47.956;9.222;2023-04-06T14:39:59;1999.90;;;999.90;;
4053;SDS011;2042;47.956;9.222;2023-04-06T14:42:25;1999.90;;;999.90;;
4053;SDS011;2042;47.956;9.222;2023-04-06T14:44:51;1999.90;;;999.90;;
4053;SDS011;2042;47.956;9.222;2023-04-06T14:47:19;1999.90;;;999.90;;
4053;SDS011;2042;47.956;9.222;2023-04-06T14:49:46;1999.90;;;999.90;;
4053;SDS011;2042;47.956;9.222;2023-04-06T14:52:30;1999.90;;;999.90;;
4053;SDS011;2042;47.956;9.222;2023-04-06T14:54:57;1999.90;;;999.90;;
4053;SDS011;2042;47.956;9.222;2023-04-06T14:57:25;1999.90;;;999.90;;
4053;SDS011;2042;47.956;9.222;2023-04-06T14:59:52;1999.90;;;999.90;;
4053;SDS011;2042;47.956;9.222;2023-04-06T15:02:19;1999.90;;;999.90;;
4053;SDS011;2042;47.956;9.222;2023-04-06T15:04:45;1999.90;;;999.90;;
4053;SDS011;2042;47.956;9.222;2023-04-06T15:07:11;1999.90;;;999.90;;
4053;SDS011;2042;47.956;9.222;2023-04-06T15:09:36;1999.90;;;999.90;;
4053;SDS011;2042;47.956;9.222;2023-04-06T15:12:02;1999.90;;;999.90;;
4053;SDS011;2042;47.956;9.222;2023-04-06T15:14:28;1999.90;;;999.90;;
4053;SDS011;2042;47.956;9.222;2023-04-06T15:16:55;1999.90;;;999.90;;
4053;SDS011;2042;47.956;9.222;2023-04-06T15:19:22;1999.90;;;999.90;;
4053;SDS011;2042;47.956;9.222;2023-04-06T15:21:48;1999.90;;;999.90;;
4053;SDS011;2042;47.956;9.222;2023-04-06T15:24:14;1999.90;;;999.90;;
4053;SDS011;2042;47.956;9.222;2023-04-06T15:26:39;1999.90;;;999.90;;
4053;SDS011;2042;47.956;9.222;2023-04-06T15:29:05;1999.90;;;999.90;;
4053;SDS011;2042;47.956;9.222;2023-04-06T15:31:31;1999.90;;;999.90;;
4053;SDS011;2042;47.956;9.222;2023-04-06T15:33:58;1999.90;;;999.90;;
4053;SDS011;2042;47.956;9.222;2023-04-06T15:36:27;1999.90;;;999.90;;
4053;SDS011;2042;47.956;9.222;2023-04-06T15:38:55;1999.90;;;999.90;;
4053;SDS011;2042;47.956;9.222;2023-04-06T15:41:22;1999.90;;;999.90;;
4053;SDS011;2042;47.956;9.222;2023-04-06T15:43:50;1999.90;;;999.90;;
4053;SDS011;2042;47.956;9.222;2023-04-06T15:46:16;1999.90;;;999.90;;
4053;SDS011;2042;47.956;9.222;2023-04-06T15:48:43;1999.90;;;999.90;;
4053;SDS011;2042;47.956;9.222;2023-04-06T15:51:09;1999.90;;;999.90;;
4053;SDS011;2042;47.956;9.222;2023-04-06T15:53:35;1999.90;;;999.90;;
4053;SDS011;2042;47.956;9.222;2023-04-06T15:56:02;1999.90;;;999.90;;
4053;SDS011;2042;47.956;9.222;2023-04-06T15:58:29;1999.90;;;999.90;;
4053;SDS011;2042;47.956;9.222;2023-04-06T16:00:56;1999.90;;;999.90;;
4053;SDS011;2042;47.956;9.222;2023-04-06T16:03:24;1999.90;;;999.90;;
4053;SDS011;2042;47.956;9.222;2023-04-06T16:05:53;1999.90;;;999.90;;
4053;SDS011;2042;47.956;9.222;2023-04-06T16:08:19;1999.90;;;999.90;;
4053;SDS011;2042;47.956;9.222;2023-04-06T16:10:45;1999.90;;;999.90;;
4053;SDS011;2042;47.956;9.222;2023-04-06T16:13:13;1999.90;;;999.90;;
4053;SDS011;2042;47.956;9.222;2023-04-06T16:15:39;1999.90;;;999.90;;
4053;SDS011;2042;47.956;9.222;2023-04-06T16:18:05;1999.90;;;999.90;;
4053;SDS011;2042;47.956;9.222;2023-04-06T16:20:31;1999.90;;;999.90;;
4053;SDS011;2042;47.956;9.222;2023-04-06T16:22:59;1999.90;;;999.90;;
4053;SDS011;2042;47.956;9.222;2023-04-06T16:25:25;1999.90;;;999.90;;
4053;SDS011;2042;47.956;9.222;2023-04-06T16:27:52;1999.90;;;999.90;;
4053;SDS011;2042;47.956;9.222;2023-04-06T16:30:31;1999.90;;;999.90;;
4053;SDS011;2042;47.956;9.222;2023-04-06T16:32:58;1999.90;;;999.90;;
4053;SDS011;2042;47.956;9.222;2023-04-06T16:35:29;1999.90;;;999.90;;
4053;SDS011;2042;47.956;9.222;2023-04-06T16:37:57;1999.90;;;999.90;;
4053;SDS011;2042;47.956;9.222;2023-04-06T16:40:28;1999.90;;;999.90;;
4053;SDS011;2042;47.956;9.222;2023-04-06T16:42:54;1999.90;;;999.90;;
4053;SDS011;2042;47.956;9.222;2023-04-06T16:45:21;1999.90;;;999.90;;
